createdAt,value
2019-05-28T00:01:39.842Z,98789.23
2019-05-28T00:04:09.722Z,98786.46
2019-05-28T00:06:39.472Z,98789.23
2019-05-28T00:09:10.054Z,98778.97
2019-05-28T00:11:39.792Z,98788.04
2019-05-28T00:16:37.994Z,98774.20
2019-05-28T00:19:07.727Z,98762.81
2019-05-28T00:21:37.446Z,98757.78
2019-05-28T00:24:07.205Z,98750.56
2019-05-28T00:26:36.993Z,98750.32
2019-05-28T00:29:06.779Z,98751.09
2019-05-28T00:31:36.588Z,98744.33
2019-05-28T00:34:06.323Z,98748.83
2019-05-28T00:36:36.079Z,98750.75
2019-05-28T00:39:08.156Z,98751.78
2019-05-28T00:41:38.032Z,98752.37
2019-05-28T00:44:07.857Z,98754.73
2019-05-28T00:46:37.714Z,98747.78
2019-05-28T00:49:07.727Z,98749.27
2019-05-28T00:51:38.801Z,98757.02
2019-05-28T00:54:08.718Z,98748.01
2019-05-28T00:56:38.833Z,98737.89
2019-05-28T00:59:08.779Z,98732.20
2019-05-28T01:01:38.546Z,98736.03
2019-05-28T01:04:08.382Z,98723.72
2019-05-28T01:06:38.128Z,98714.84
2019-05-28T01:09:08.972Z,98718.00
2019-05-28T01:11:38.720Z,98717.17
2019-05-28T01:14:08.587Z,98720.87
2019-05-28T01:16:38.352Z,98716.67
2019-05-28T01:19:08.122Z,98711.70
2019-05-28T01:21:37.920Z,98711.39
2019-05-28T01:24:07.704Z,98721.04
2019-05-28T01:26:37.508Z,98722.30
2019-05-28T01:29:07.385Z,98720.72
2019-05-28T01:31:37.110Z,98720.52
2019-05-28T01:34:06.894Z,98710.97
2019-05-28T01:36:36.654Z,98712.20
2019-05-28T01:39:07.919Z,98712.55
2019-05-28T01:41:37.746Z,98709.33
2019-05-28T01:44:07.609Z,98711.56
2019-05-28T01:46:37.361Z,98720.97
2019-05-28T01:49:07.191Z,98705.80
2019-05-28T01:51:36.900Z,98704.83
2019-05-28T01:54:06.751Z,98708.84
2019-05-28T01:56:36.542Z,98709.30
2019-05-28T01:59:06.308Z,98713.06
2019-05-28T02:01:36.113Z,98708.27
2019-05-28T02:04:06.033Z,98701.12
2019-05-28T02:06:35.808Z,98707.33
2019-05-28T02:09:07.601Z,98706.27
2019-05-28T02:11:37.364Z,98702.78
2019-05-28T02:14:07.361Z,98701.09
2019-05-28T02:16:37.149Z,98711.55
2019-05-28T02:19:06.967Z,98708.03
2019-05-28T02:21:36.762Z,98706.19
2019-05-28T02:24:06.690Z,98711.68
2019-05-28T02:26:36.464Z,98708.81
2019-05-28T02:29:06.414Z,98703.50
2019-05-28T02:31:36.144Z,98700.98
2019-05-28T02:34:06.040Z,98710.30
2019-05-28T02:36:35.738Z,98705.80
2019-05-28T02:39:07.870Z,98714.67
2019-05-28T02:41:37.696Z,98713.58
2019-05-28T02:44:07.574Z,98714.45
2019-05-28T02:46:37.407Z,98723.13
2019-05-28T02:49:07.092Z,98715.27
2019-05-28T02:51:37.417Z,98674.47
2019-05-28T02:54:07.207Z,98717.42
2019-05-28T02:56:37.227Z,98711.39
2019-05-28T02:59:08.869Z,98715.26
2019-05-28T03:01:43.990Z,98722.61
2019-05-28T03:04:11.064Z,98727.31
2019-05-28T03:06:43.679Z,98719.79
2019-05-28T03:09:13.492Z,98722.56
2019-05-28T03:11:43.256Z,98733.58
2019-05-28T03:14:12.948Z,98731.60
2019-05-28T03:16:45.475Z,98726.51
2019-05-28T03:19:15.780Z,98723.41
2019-05-28T03:21:47.235Z,98723.48
2019-05-28T03:24:19.296Z,98718.44
2019-05-28T03:26:49.153Z,98723.44
2019-05-28T03:29:19.019Z,98726.63
2019-05-28T03:32:05.917Z,98723.38
2019-05-28T03:34:20.430Z,98728.11
2019-05-28T03:36:51.923Z,98724.45
2019-05-28T03:39:22.027Z,98724.29
2019-05-28T03:41:51.763Z,98729.84
2019-05-28T03:44:21.603Z,98719.90
2019-05-28T03:46:51.411Z,98718.41
2019-05-28T03:49:21.246Z,98722.58
2019-05-28T03:51:50.994Z,98717.66
2019-05-28T03:54:20.730Z,98710.96
2019-05-28T03:56:50.636Z,98707.58
2019-05-28T03:59:20.556Z,98712.95
2019-05-28T04:01:50.413Z,98718.89
2019-05-28T04:04:20.167Z,98720.47
2019-05-28T04:06:49.943Z,98718.85
2019-05-28T04:09:19.742Z,98721.56
2019-05-28T04:11:49.504Z,98726.41
2019-05-28T04:14:19.300Z,98720.27
2019-05-28T04:16:49.112Z,98721.59
2019-05-28T04:19:18.890Z,98725.70
2019-05-28T04:21:48.672Z,98721.22
2019-05-28T04:24:18.505Z,98719.09
2019-05-28T04:26:48.227Z,98722.23
2019-05-28T04:29:18.046Z,98721.48
2019-05-28T04:31:47.767Z,98722.71
2019-05-28T04:34:17.521Z,98724.82
2019-05-28T04:36:47.347Z,98722.25
2019-05-28T04:39:17.103Z,98725.92
2019-05-28T04:41:46.846Z,98727.59
2019-05-28T04:44:16.586Z,98724.09
2019-05-28T04:46:46.414Z,98723.06
2019-05-28T04:49:16.262Z,98723.05
2019-05-28T04:51:46.034Z,98722.92
2019-05-28T04:54:15.778Z,98711.66
2019-05-28T04:56:45.614Z,98715.20
2019-05-28T04:59:15.372Z,98729.42
2019-05-28T05:01:45.226Z,98730.11
2019-05-28T05:04:14.974Z,98727.14
2019-05-28T05:06:44.728Z,98725.59
2019-05-28T05:09:14.572Z,98724.91
2019-05-28T05:11:44.351Z,98725.27
2019-05-28T05:14:14.144Z,98731.47
2019-05-28T05:16:44.044Z,98728.60
2019-05-28T05:19:13.984Z,98727.09
2019-05-28T05:21:43.756Z,98726.36
2019-05-28T05:24:13.542Z,98720.16
2019-05-28T05:26:43.292Z,98721.11
2019-05-28T05:29:13.145Z,98720.91
2019-05-28T05:31:43.008Z,98721.89
2019-05-28T05:34:12.793Z,98719.98
2019-05-28T05:36:42.594Z,98725.08
2019-05-28T05:39:12.549Z,98727.31
2019-05-28T05:41:42.595Z,98727.13
2019-05-28T05:44:12.432Z,98724.58
2019-05-28T05:46:42.165Z,98722.63
2019-05-28T05:49:11.972Z,98725.56
2019-05-28T05:51:41.710Z,98726.42
2019-05-28T05:54:11.510Z,98731.57
2019-05-28T05:56:41.394Z,98726.49
2019-05-28T05:59:11.175Z,98732.42
2019-05-28T06:01:40.896Z,98724.99
2019-05-28T06:04:10.674Z,98730.69
2019-05-28T06:06:40.521Z,98728.70
2019-05-28T06:09:10.304Z,98731.58
2019-05-28T06:11:40.040Z,98719.91
2019-05-28T06:14:09.875Z,98716.12
2019-05-28T06:16:39.616Z,98713.70
2019-05-28T06:19:09.477Z,98716.62
2019-05-28T06:21:39.217Z,98709.47
2019-05-28T06:24:09.222Z,98708.08
2019-05-28T06:26:38.990Z,98703.73
2019-05-28T06:29:08.792Z,98703.94
2019-05-28T06:31:38.708Z,98700.31
2019-05-28T06:34:08.475Z,98696.97
2019-05-28T06:36:38.229Z,98698.77
2019-05-28T06:39:08.925Z,98694.11
2019-05-28T06:41:38.678Z,98688.53
2019-05-28T06:44:08.531Z,98688.17
2019-05-28T06:46:38.288Z,98681.95
2019-05-28T06:49:08.075Z,98680.67
2019-05-28T06:51:37.871Z,98675.59
2019-05-28T06:54:11.489Z,98674.00
2019-05-28T06:56:39.173Z,98673.94
2019-05-28T06:59:08.949Z,98680.45
2019-05-28T07:01:38.793Z,98679.02
2019-05-28T07:04:13.960Z,98663.83
2019-05-28T07:06:40.066Z,98664.06
2019-05-28T07:09:09.990Z,98662.08
2019-05-28T07:11:39.740Z,98650.17
2019-05-28T07:14:10.338Z,98658.90
2019-05-28T07:16:52.616Z,98654.91
2019-05-28T07:19:23.941Z,98649.95
2019-05-28T07:21:43.200Z,98649.66
2019-05-28T07:24:13.005Z,98646.75
2019-05-28T07:26:42.791Z,98652.80
2019-05-28T07:29:12.541Z,98646.26
2019-05-28T07:31:42.301Z,98634.43
2019-05-28T07:34:12.039Z,98631.33
2019-05-28T07:36:41.805Z,98626.94
2019-05-28T07:39:12.347Z,98628.58
2019-05-28T07:41:42.200Z,98640.44
2019-05-28T07:44:12.009Z,98618.62
2019-05-28T07:46:41.796Z,98617.34
2019-05-28T07:49:11.637Z,98623.78
2019-05-28T07:51:41.536Z,98620.08
2019-05-28T07:54:11.257Z,98623.92
2019-05-28T07:56:41.212Z,98618.97
2019-05-28T07:59:10.993Z,98621.72
2019-05-28T08:01:40.919Z,98618.42
2019-05-28T08:04:10.860Z,98612.42
2019-05-28T08:06:54.403Z,98615.13
2019-05-28T08:09:12.130Z,98617.89
2019-05-28T08:11:41.940Z,98611.04
2019-05-28T08:14:11.873Z,98612.11
2019-05-28T08:16:52.194Z,98611.28
2019-05-28T08:19:13.290Z,98605.52
2019-05-28T08:21:43.128Z,98611.86
2019-05-28T08:24:13.182Z,98616.64
2019-05-28T08:26:43.090Z,98613.05
2019-05-28T08:29:13.086Z,98605.52
2019-05-28T08:31:42.995Z,98601.38
2019-05-28T08:34:12.842Z,98592.52
2019-05-28T08:36:42.687Z,98593.59
2019-05-28T08:39:12.571Z,98589.14
2019-05-28T08:41:42.368Z,98579.39
2019-05-28T08:44:12.216Z,98581.70
2019-05-28T08:46:41.936Z,98586.94
2019-05-28T08:49:11.796Z,98579.39
2019-05-28T08:51:41.640Z,98579.39
2019-05-28T08:54:11.430Z,98569.66
2019-05-28T08:56:41.250Z,98576.73
2019-05-28T08:59:10.978Z,98575.87
2019-05-28T09:01:40.777Z,98568.19
2019-05-28T09:04:10.551Z,98563.88
2019-05-28T09:06:40.523Z,98561.05
2019-05-28T09:09:10.422Z,98561.69
2019-05-28T09:11:40.224Z,98559.47
2019-05-28T09:14:10.057Z,98547.69
2019-05-28T09:16:39.858Z,98546.64
2019-05-28T09:19:10.528Z,98534.86
2019-05-28T09:21:40.381Z,98533.74
2019-05-28T09:24:10.137Z,98528.78
2019-05-28T09:26:39.904Z,98516.88
2019-05-28T09:29:09.779Z,98517.98
2019-05-28T09:31:39.523Z,98515.42
2019-05-28T09:34:09.297Z,98507.94
2019-05-28T09:36:40.096Z,98516.90
2019-05-28T09:39:10.242Z,98508.48
2019-05-28T09:41:40.008Z,98505.70
2019-05-28T09:44:09.801Z,98505.55
2019-05-28T09:46:39.713Z,98495.56
2019-05-28T09:49:09.481Z,98492.00
2019-05-28T09:51:39.211Z,98490.33
2019-05-28T09:54:09.093Z,98483.48
2019-05-28T09:56:38.819Z,98482.77
2019-05-28T09:59:08.641Z,98478.02
2019-05-28T10:01:38.560Z,98469.42
2019-05-28T10:04:08.456Z,98464.83
2019-05-28T10:06:41.664Z,98457.20
2019-05-28T10:09:11.087Z,98451.14
2019-05-28T10:11:41.068Z,98447.11
2019-05-28T10:14:11.021Z,98448.82
2019-05-28T10:16:40.887Z,98448.27
2019-05-28T10:19:10.643Z,98445.86
2019-05-28T10:21:40.389Z,98437.95
2019-05-28T10:24:10.209Z,98428.92
2019-05-28T10:26:39.991Z,98431.31
2019-05-28T10:29:09.878Z,98427.50
2019-05-28T10:31:39.823Z,98421.67
2019-05-28T10:34:09.558Z,98418.17
2019-05-28T10:36:39.350Z,98409.88
2019-05-28T10:39:09.493Z,98397.09
2019-05-28T10:41:39.648Z,98391.89
2019-05-28T10:44:09.651Z,98392.00
2019-05-28T10:46:39.413Z,98393.90
2019-05-28T10:49:09.198Z,98383.91
2019-05-28T10:51:39.074Z,98376.08
2019-05-28T10:54:09.102Z,98369.09
2019-05-28T10:56:39.069Z,98363.35
2019-05-28T10:59:08.832Z,98360.54
2019-05-28T11:01:38.700Z,98356.83
2019-05-28T11:04:08.564Z,98357.16
2019-05-28T11:06:51.405Z,98352.28
2019-05-28T11:09:10.522Z,98346.02
2019-05-28T11:11:40.277Z,98353.47
2019-05-28T11:14:10.177Z,98345.77
2019-05-28T11:16:39.941Z,98340.32
2019-05-28T11:19:09.842Z,98337.58
2019-05-28T11:21:39.677Z,98325.83
2019-05-28T11:24:09.559Z,98321.24
2019-05-28T11:26:39.357Z,98312.12
2019-05-28T11:29:09.234Z,98300.40
2019-05-28T11:31:39.008Z,98298.94
2019-05-28T11:34:08.757Z,98289.31
2019-05-28T11:36:38.575Z,98277.94
2019-05-28T11:39:10.675Z,98280.43
2019-05-28T11:41:42.307Z,98273.41
2019-05-28T11:44:12.480Z,98263.30
2019-05-28T11:46:42.307Z,98258.14
2019-05-28T11:49:12.083Z,98260.24
2019-05-28T11:51:41.869Z,98261.79
2019-05-28T11:54:11.807Z,98254.02
2019-05-28T11:56:41.663Z,98252.36
2019-05-28T11:59:11.452Z,98240.27
2019-05-28T12:01:41.330Z,98239.68
2019-05-28T12:04:11.107Z,98232.55
2019-05-28T12:06:41.140Z,98220.94
2019-05-28T12:09:10.974Z,98214.77
2019-05-28T12:11:40.785Z,98211.17
2019-05-28T12:14:10.588Z,98213.86
2019-05-28T12:16:40.381Z,98213.15
2019-05-28T12:19:10.236Z,98203.65
2019-05-28T12:21:40.043Z,98190.58
2019-05-28T12:24:09.798Z,98188.38
2019-05-28T12:26:39.707Z,98183.05
2019-05-28T12:29:09.748Z,98177.24
2019-05-28T12:31:39.615Z,98176.70
2019-05-28T12:34:09.417Z,98174.14
2019-05-28T12:36:39.132Z,98167.31
2019-05-28T12:39:09.743Z,98160.68
2019-05-28T12:41:39.519Z,98153.34
2019-05-28T12:44:09.502Z,98139.68
2019-05-28T12:46:39.270Z,98150.25
2019-05-28T12:49:09.073Z,98146.66
2019-05-28T12:51:38.874Z,98146.05
2019-05-28T12:54:08.822Z,98136.06
2019-05-28T12:56:38.587Z,98140.16
2019-05-28T12:59:08.343Z,98129.70
2019-05-28T13:01:38.111Z,98125.86
2019-05-28T13:04:08.106Z,98127.75
2019-05-28T13:06:37.975Z,98124.84
2019-05-28T13:09:09.190Z,98120.91
2019-05-28T13:11:38.998Z,98120.09
2019-05-28T13:14:08.775Z,98105.85
2019-05-28T13:16:38.550Z,98101.70
2019-05-28T13:19:08.422Z,98102.02
2019-05-28T13:21:38.228Z,98092.28
2019-05-28T13:24:08.161Z,98094.02
2019-05-28T13:26:37.902Z,98095.70
2019-05-28T13:29:07.710Z,98088.40
2019-05-28T13:31:37.605Z,98090.66
2019-05-28T13:34:07.357Z,98085.00
2019-05-28T13:36:37.185Z,98078.44
2019-05-28T13:39:08.223Z,98075.50
2019-05-28T13:41:37.986Z,98068.61
2019-05-28T13:44:08.196Z,98061.91
2019-05-28T13:46:38.117Z,98067.98
2019-05-28T13:49:07.947Z,98063.86
2019-05-28T13:51:37.682Z,98053.97
2019-05-28T13:54:07.572Z,98058.84
2019-05-28T13:56:37.560Z,98057.09
2019-05-28T13:59:07.420Z,98059.06
2019-05-28T14:01:37.202Z,98048.23
2019-05-28T14:04:07.066Z,98043.36
2019-05-28T14:06:43.616Z,98038.93
2019-05-28T14:09:09.746Z,98039.63
2019-05-28T14:11:39.491Z,98034.16
2019-05-28T14:14:09.322Z,98036.21
2019-05-28T14:17:31.785Z,98026.27
2019-05-28T14:20:01.602Z,98030.94
2019-05-28T14:22:34.309Z,98020.64
2019-05-28T14:25:02.921Z,98030.84
2019-05-28T14:27:32.653Z,98017.22
2019-05-28T14:30:02.558Z,98015.69
2019-05-28T14:32:32.370Z,98013.15
2019-05-28T14:35:02.126Z,98014.19
2019-05-28T14:37:31.896Z,98011.00
2019-05-28T14:40:01.853Z,98012.75
2019-05-28T14:42:31.686Z,98009.17
2019-05-28T14:45:01.456Z,98006.82
2019-05-28T14:47:31.269Z,97998.68
2019-05-28T14:50:01.070Z,97994.02
2019-05-28T14:52:30.873Z,97993.94
2019-05-28T14:55:00.770Z,97988.79
2019-05-28T14:57:30.614Z,97987.30
2019-05-28T15:00:00.446Z,97975.31
2019-05-28T15:02:30.253Z,97980.06
2019-05-28T15:05:00.033Z,97974.11
2019-05-28T15:07:29.797Z,97971.12
2019-05-28T15:09:59.613Z,97974.56
2019-05-28T15:12:29.546Z,97973.87
2019-05-28T15:14:59.317Z,97975.75
2019-05-28T15:17:29.078Z,97972.87
2019-05-28T15:19:58.905Z,97971.86
2019-05-28T15:22:28.683Z,97965.37
2019-05-28T15:24:58.429Z,97970.52
2019-05-28T15:27:28.214Z,97962.34
2019-05-28T15:29:57.970Z,97968.14
2019-05-28T15:32:27.776Z,97963.91
2019-05-28T15:34:57.526Z,97965.64
2019-05-28T15:37:27.247Z,97961.70
2019-05-28T15:39:57.097Z,97955.79
2019-05-28T15:42:26.864Z,97952.99
2019-05-28T15:44:56.627Z,97944.91
2019-05-28T15:47:26.465Z,97954.50
2019-05-28T15:49:56.253Z,97951.85
2019-05-28T15:52:26.065Z,97949.21
2019-05-28T15:54:55.823Z,97948.77
2019-05-28T15:57:25.587Z,97946.32
2019-05-28T15:59:55.195Z,97954.22
2019-05-28T16:02:24.845Z,97956.91
2019-05-28T16:04:54.569Z,97956.63
2019-05-28T16:07:24.180Z,97957.87
2019-05-28T16:09:56.508Z,97951.62
2019-05-28T16:12:25.094Z,97952.42
2019-05-28T16:14:54.743Z,97947.19
2019-05-28T16:17:24.506Z,97947.44
2019-05-28T16:19:54.156Z,97953.70
2019-05-28T16:22:23.861Z,97953.97
2019-05-28T16:24:53.499Z,97952.53
2019-05-28T16:27:23.113Z,97948.11
2019-05-28T16:29:52.772Z,97951.15
2019-05-28T16:32:28.010Z,97959.91
2019-05-28T16:34:53.776Z,97949.72
2019-05-28T16:37:23.418Z,97958.63
2019-05-28T16:39:53.022Z,97965.80
2019-05-28T16:42:22.693Z,97958.56
2019-05-28T16:44:52.308Z,97966.98
2019-05-28T16:47:21.980Z,97966.05
2019-05-28T16:49:51.593Z,97975.75
2019-05-28T16:52:21.205Z,97971.36
2019-05-28T16:54:50.919Z,97969.73
2019-05-28T16:57:20.571Z,97972.50
2019-05-28T16:59:50.240Z,97965.91
2019-05-28T17:02:19.865Z,97977.79
2019-05-28T17:04:49.478Z,97975.94
2019-05-28T17:07:19.143Z,97978.73
2019-05-28T17:09:48.768Z,97980.09
2019-05-28T17:12:18.348Z,97976.03
2019-05-28T17:14:48.067Z,97972.05
2019-05-28T17:17:17.626Z,97975.05
2019-05-28T17:19:47.235Z,97984.01
2019-05-28T17:22:16.934Z,97979.77
2019-05-28T17:24:46.999Z,97985.70
2019-05-28T17:27:16.917Z,97989.42
2019-05-28T17:29:50.444Z,97989.70
2019-05-28T17:32:17.842Z,97996.35
2019-05-28T17:34:47.440Z,97990.88
2019-05-28T17:37:17.114Z,98000.89
2019-05-28T17:39:46.731Z,97997.82
2019-05-28T17:42:16.333Z,98005.78
2019-05-28T17:44:47.320Z,98000.77
2019-05-28T17:47:17.117Z,97998.31
2019-05-28T17:49:46.773Z,97999.22
2019-05-28T17:52:16.371Z,98004.89
2019-05-28T17:54:45.987Z,98002.98
2019-05-28T17:57:15.559Z,98008.80
2019-05-28T17:59:45.175Z,98010.67
2019-05-28T18:02:14.756Z,98018.80
2019-05-28T18:04:44.350Z,98015.86
2019-05-28T18:07:13.972Z,98014.16
2019-05-28T18:09:43.572Z,98013.64
2019-05-28T18:12:13.241Z,98007.45
2019-05-28T18:14:42.849Z,98012.57
2019-05-28T18:17:12.509Z,98025.23
2019-05-28T18:19:42.159Z,98024.92
2019-05-28T18:22:11.784Z,98021.58
2019-05-28T18:24:41.368Z,98033.02
2019-05-28T18:27:11.004Z,98042.03
2019-05-28T18:29:40.711Z,98044.94
2019-05-28T18:32:10.343Z,98043.36
2019-05-28T18:34:39.984Z,98045.59
2019-05-28T18:37:09.576Z,98054.23
2019-05-28T18:39:39.209Z,98051.61
2019-05-28T18:42:08.898Z,98050.05
2019-05-28T18:44:38.542Z,98047.38
2019-05-28T18:47:08.178Z,98055.05
2019-05-28T18:49:37.807Z,98056.59
2019-05-28T18:52:07.476Z,98051.61
2019-05-28T18:54:37.171Z,98055.74
2019-05-28T18:57:06.838Z,98060.55
2019-05-28T18:59:36.636Z,98055.33
2019-05-28T19:02:06.227Z,98058.14
2019-05-28T19:04:35.843Z,98055.40
2019-05-28T19:07:05.502Z,98056.99
2019-05-28T19:09:35.127Z,98059.22
2019-05-28T19:12:04.710Z,98069.89
2019-05-28T19:14:34.316Z,98059.16
2019-05-28T19:17:03.956Z,98067.41
2019-05-28T19:19:33.558Z,98074.19
2019-05-28T19:22:03.165Z,98082.45
2019-05-28T19:24:32.748Z,98083.55
2019-05-28T19:27:02.505Z,98084.09
2019-05-28T19:29:32.128Z,98095.04
2019-05-28T19:32:01.717Z,98097.41
2019-05-28T19:34:33.787Z,98090.00
2019-05-28T19:37:05.088Z,98089.95
2019-05-28T19:39:35.338Z,98087.36
2019-05-28T19:42:04.907Z,98096.79
2019-05-28T19:44:34.517Z,98098.31
2019-05-28T19:47:04.127Z,98102.29
2019-05-28T19:49:33.722Z,98084.32
2019-05-28T19:52:03.405Z,98084.19
2019-05-28T19:54:32.986Z,98088.91
2019-05-28T19:57:02.575Z,98082.58
2019-05-28T19:59:34.066Z,98079.45
2019-05-28T20:02:04.668Z,98080.82
2019-05-28T20:04:37.170Z,98082.05
2019-05-28T20:07:07.429Z,98083.41
2019-05-28T20:09:37.010Z,98084.32
2019-05-28T20:12:12.816Z,98081.37
2019-05-28T20:14:38.061Z,98085.65
2019-05-28T20:17:08.967Z,98096.69
2019-05-28T20:19:38.588Z,98099.81
2019-05-28T20:22:08.192Z,98118.61
2019-05-28T20:24:37.782Z,98132.47
2019-05-28T20:27:09.438Z,98139.62
2019-05-28T20:29:39.061Z,98141.05
2019-05-28T20:32:09.345Z,98143.59
2019-05-28T20:34:39.038Z,98145.12
2019-05-28T20:37:08.623Z,98148.89
2019-05-28T20:39:38.352Z,98149.75
2019-05-28T20:42:08.226Z,98151.78
2019-05-28T20:44:37.853Z,98160.06
2019-05-28T20:47:07.512Z,98157.05
2019-05-28T20:49:37.096Z,98156.80
2019-05-28T20:52:07.064Z,98169.12
2019-05-28T20:54:36.778Z,98162.35
2019-05-28T20:57:06.383Z,98172.70
2019-05-28T20:59:35.976Z,98172.53
2019-05-28T21:02:05.790Z,98169.93
2019-05-28T21:04:35.404Z,98168.41
2019-05-28T21:07:05.070Z,98171.84
2019-05-28T21:09:34.679Z,98180.76
2019-05-28T21:12:04.441Z,98187.52
2019-05-28T21:14:34.032Z,98174.88
2019-05-28T21:17:03.613Z,98182.02
2019-05-28T21:19:33.221Z,98185.38
2019-05-28T21:22:02.798Z,98186.00
2019-05-28T21:24:32.420Z,98198.62
2019-05-28T21:27:02.012Z,98190.58
2019-05-28T21:29:31.573Z,98193.80
2019-05-28T21:32:01.175Z,98193.98
2019-05-28T21:34:30.750Z,98199.61
2019-05-28T21:37:01.357Z,98197.25
2019-05-28T21:39:31.645Z,98206.14
2019-05-28T21:42:02.187Z,98198.84
2019-05-28T21:44:32.576Z,98211.30
2019-05-28T21:47:02.599Z,98200.08
2019-05-28T21:49:32.246Z,98207.25
2019-05-28T21:52:03.906Z,98215.09
2019-05-28T21:54:33.156Z,98219.64
2019-05-28T21:57:03.608Z,98216.03
2019-05-28T21:59:33.222Z,98220.93
2019-05-28T22:02:04.658Z,98219.84
2019-05-28T22:04:34.249Z,98225.30
2019-05-28T22:07:03.900Z,98237.95
2019-05-28T22:09:33.481Z,98235.46
2019-05-28T22:12:03.885Z,98235.46
2019-05-28T22:14:34.570Z,98232.99
2019-05-28T22:17:05.445Z,98240.14
2019-05-28T22:19:35.150Z,98248.94
2019-05-28T22:22:04.813Z,98248.94
2019-05-28T22:24:34.480Z,98245.66
2019-05-28T22:27:04.594Z,98243.49
2019-05-28T22:29:34.240Z,98249.52
2019-05-28T22:32:04.976Z,98257.99
2019-05-28T22:34:34.602Z,98248.95
2019-05-28T22:37:04.538Z,98253.87
2019-05-28T22:39:34.769Z,98254.98
2019-05-28T22:42:05.726Z,98251.12
2019-05-28T22:44:35.477Z,98255.22
2019-05-28T22:47:05.266Z,98252.50
2019-05-28T22:49:34.906Z,98254.44
2019-05-28T22:52:04.525Z,98250.52
2019-05-28T22:54:34.095Z,98241.99
2019-05-28T22:57:05.207Z,98252.12
2019-05-28T22:59:36.485Z,98253.61
2019-05-28T23:02:07.031Z,98253.61
2019-05-28T23:04:36.644Z,98257.45
2019-05-28T23:07:07.383Z,98258.76
2019-05-28T23:09:37.105Z,98255.50
2019-05-28T23:12:07.987Z,98258.23
2019-05-28T23:14:37.796Z,98258.80
2019-05-28T23:17:08.417Z,98273.30
2019-05-28T23:19:38.054Z,98273.02
2019-05-28T23:22:08.964Z,98276.86
2019-05-28T23:24:38.670Z,98275.94
2019-05-28T23:27:08.238Z,98272.65
2019-05-28T23:29:37.883Z,98280.58
2019-05-28T23:32:08.270Z,98284.43
2019-05-28T23:34:37.814Z,98211.09
2019-05-28T23:37:07.931Z,98291.26
2019-05-28T23:39:38.627Z,98289.67
2019-05-28T23:42:09.359Z,98286.69
2019-05-28T23:44:39.180Z,98288.57
2019-05-28T23:47:10.066Z,98286.95
2019-05-28T23:49:39.766Z,98296.42
2019-05-28T23:52:10.623Z,98295.63
2019-05-28T23:54:40.311Z,98294.80
2019-05-28T23:57:10.030Z,98296.18
2019-05-28T23:59:39.596Z,98302.70
